Latest Weather Observations for Charles Point

IDD60901

Issued at 7:41 pm CST Sunday 4 December 2016 (issued every 10 minutes, with the page automatically refreshed every 10 minutes)

About weather observations | Map of Darwin area stations | Latest observations for Darwin area | Other Formats
Station Details ID: 014031 Name: CHARLES POINT Lat: -12.39 Lon: 130.63 Height: 14.0 m
Data from the previous 72 hours. | See also: Recent months for locations in Northern Territory
Date/Time
CST
Temp
°C
App
Temp
°C
Dew
Point
°C
Rel
Hum
%
Delta-T
°C
Wind Press
QNH
hPa
Press
MSL
hPa
Rain since
9am
mm
Dir  Spd
km/h
Gust
km/h
Spd
kts
Gust
kts
04/07:30pm 31.6 33.4 22.6 59 6.2 NE 17 24 9 13 1007.8 1007.6 0.0
04/07:00pm 31.6 33.8 22.6 59 6.2 NE 15 20 8 11 1007.7 1007.5 0.0
04/06:30pm 31.7 33.3 22.1 56 6.5 NE 17 24 9 13 1007.4 1007.2 0.0
04/06:00pm 32.2 33.5 22.3 56 6.8 NE 19 24 10 13 1007.1 1006.9 0.0
04/05:30pm 32.3 33.6 22.4 56 6.8 NE 19 26 10 14 1007.0 1006.8 0.0
04/05:00pm 32.7 32.6 21.5 51 7.6 NE 24 32 13 17 1007.0 1006.8 0.0
04/04:30pm 33.2 36.2 22.6 53 7.3 NE 11 15 6 8 1007.0 1006.8 0.0
04/04:00pm 32.8 36.3 22.9 56 6.8 NNE 9 13 5 7 1007.4 1007.2 0.0
04/03:30pm 32.9 36.4 23.5 57 6.5 NNE 11 17 6 9 1007.7 1007.5 0.0
04/03:00pm 32.1 36.0 23.6 60 5.9 NNE 9 15 5 8 1007.9 1007.7 0.0
04/02:30pm 32.2 36.2 23.7 61 5.9 NNE 9 15 5 8 1008.3 1008.1 0.0
04/02:00pm 32.2 35.8 23.7 61 5.9 NNE 11 15 6 8 1008.6 1008.4 0.0
04/01:30pm 32.8 36.7 24.3 61 6.0 NNE 11 15 6 8 1009.0 1008.8 0.0
04/01:00pm 32.7 36.4 23.9 60 6.1 NE 11 17 6 9 1009.3 1009.1 0.0
04/12:30pm 32.8 36.5 23.2 57 6.6 NE 9 15 5 8 1009.6 1009.4 0.0
04/12:00pm 32.4 36.8 23.4 59 6.2 ENE 6 9 3 5 1009.9 1009.7 0.0
04/11:30am 32.3 36.9 24.1 62 5.7 ENE 7 13 4 7 1010.2 1010.0 0.0
04/11:00am 31.7 35.9 23.5 62 5.7 E 7 13 4 7 1010.4 1010.2 0.0
04/10:30am 31.3 35.6 23.7 64 5.3 E 7 13 4 7 1010.7 1010.5 0.0
04/10:00am 31.6 35.7 24.5 66 5.0 E 11 15 6 8 1010.7 1010.5 0.0
04/09:30am 31.0 35.5 23.9 66 4.9 ESE 7 15 4 8 1010.8 1010.6 0.0
04/09:00am 30.7 35.3 24.1 68 4.6 SE 7 13 4 7 1010.8 1010.6 0.0
04/08:30am 30.0 34.8 24.4 72 3.9 SE 7 11 4 6 1010.8 1010.6 0.0
04/08:00am 29.2 33.8 24.1 74 3.5 SSE 7 9 4 5 1010.7 1010.5 0.0
04/07:30am 28.1 32.2 23.9 78 2.9 SSE 9 13 5 7 1010.7 1010.5 0.0
04/07:00am 26.8 30.9 23.9 84 2.0 SSE 9 13 5 7 1010.3 1010.1 0.0
04/06:30am 25.9 29.9 23.8 88 1.4 S 9 11 5 6 1010.0 1009.8 0.0
04/06:00am 25.8 30.1 23.7 88 1.4 S 7 11 4 6 1009.5 1009.3 0.0
04/05:30am 25.8 30.2 23.8 89 1.4 S 7 13 4 7 1009.3 1009.1 0.0
04/05:00am 25.8 29.8 23.8 89 1.4 S 9 13 5 7 1008.8 1008.6 0.0
04/04:30am 25.7 30.2 23.9 90 1.2 S 7 9 4 5 1008.5 1008.3 0.0
04/04:00am 25.9 30.5 24.1 90 1.2 S 7 9 4 5 1008.3 1008.1 0.0
04/03:30am 25.9 30.6 24.3 91 1.1 SSW 7 9 4 5 1008.3 1008.1 0.0
04/03:00am 25.7 30.5 24.1 91 1.1 SW 6 6 3 3 1008.3 1008.1 0.0
04/02:30am 25.7 30.4 23.9 90 1.2 SW 6 7 3 4 1008.6 1008.4 0.0
04/02:00am 25.7 30.8 24.1 91 1.1 NW 4 6 2 3 1008.7 1008.5 0.0
04/01:30am 25.9 31.2 24.3 91 1.1 NW 4 6 2 3 1009.1 1008.9 0.0
04/01:00am 25.9 31.0 24.1 90 1.2 NW 4 4 2 2 1009.4 1009.2 0.0
04/12:30am 26.2 32.2 24.2 89 1.4 CALM 0 0 0 0 1010.0 1009.8 0.0
04/12:00am 26.3 32.3 24.3 89 1.4 CALM 0 0 0 0 1010.4 1010.2 0.0
 
Date/Time
CST
Temp
°C
App
Temp
°C
Dew
Point
°C
Rel
Hum
%
Delta-T
°C
Wind Press
QNH
hPa
Press
MSL
hPa
Rain since
9am
mm
Dir  Spd
km/h
Gust
km/h
Spd
kts
Gust
kts
03/11:30pm 26.6 32.6 24.3 87 1.6 CALM 0 0 0 0 1010.6 1010.4 0.0
03/11:00pm 27.3 32.5 24.2 83 2.1 NW 4 9 2 5 1010.8 1010.6 0.0
03/10:30pm 27.2 32.8 24.3 84 2.0 WNW 2 6 1 3 1010.8 1010.6 0.0
03/10:00pm 27.8 33.0 24.2 81 2.5 WNW 4 6 2 3 1010.9 1010.7 0.0
03/09:30pm 28.7 33.4 24.0 76 3.3 WNW 6 11 3 6 1010.6 1010.4 0.0
03/09:00pm 29.3 33.6 24.2 74 3.5 NW 9 13 5 7 1010.5 1010.3 0.0
03/08:30pm 29.6 34.0 23.8 71 4.0 NW 7 11 4 6 1010.1 1009.9 0.0
03/08:00pm 29.9 34.2 24.3 72 3.9 NW 9 13 5 7 1009.9 1009.7 0.0
03/07:30pm 29.3 33.8 24.0 73 3.7 WNW 7 9 4 5 1009.7 1009.5 0.0
03/07:00pm 29.5 34.4 23.7 71 4.0 NNW 4 7 2 4 1009.2 1009.0 0.0
03/06:30pm 29.6 34.3 24.0 72 3.9 NNW 6 9 3 5 1008.7 1008.5 0.0
03/06:00pm 29.6 32.9 23.8 71 4.0 NW 13 17 7 9 1008.5 1008.3 0.0
03/05:30pm 29.8 33.3 24.2 72 3.9 NW 13 20 7 11 1008.4 1008.2 0.0
03/05:00pm 29.9 33.0 24.1 71 4.0 NW 15 20 8 11 1008.6 1008.4 0.0
03/04:30pm 30.2 33.9 23.9 69 4.4 NW 11 17 6 9 1008.5 1008.3 0.0
03/04:00pm 30.5 34.8 24.9 72 3.9 NW 11 17 6 9 1008.2 1008.0 0.0
03/03:30pm 30.1 33.5 25.2 75 3.5 NNW 17 24 9 13 1007.9 1007.7 0.0
03/03:00pm 30.8 35.1 26.1 76 3.4 NW 15 28 8 15 1008.6 1008.4 0.0
03/02:30pm 32.2 36.4 24.8 65 5.2 N 11 13 6 7 1008.9 1008.7 0.0
03/02:00pm 31.7 36.6 24.6 66 5.0 NNE 7 13 4 7 1009.1 1008.9 0.0
03/01:30pm 32.0 36.9 24.6 65 5.2 NE 7 11 4 6 1009.3 1009.1 0.0
03/01:00pm 31.7 35.8 24.0 63 5.4 NE 9 15 5 8 1009.3 1009.1 0.0
03/12:30pm 32.8 37.3 24.6 62 5.8 NE 9 15 5 8 1009.7 1009.5 0.0
03/12:00pm 32.2 36.8 24.8 65 5.2 NE 9 15 5 8 1010.4 1010.2 0.0
03/11:30am 31.6 36.5 24.7 67 4.9 ENE 7 13 4 7 1010.5 1010.3 0.0
03/11:00am 31.8 35.8 24.4 65 5.2 ENE 11 19 6 10 1010.9 1010.7 0.0
03/10:30am 31.4 34.8 22.7 60 6.0 ENE 9 19 5 10 1010.8 1010.6 0.0
03/10:00am 29.1 33.1 23.8 73 3.7 E 9 17 5 9 1011.3 1011.2 0.0
03/09:30am 28.5 31.3 23.0 72 3.8 E 13 22 7 12 1011.4 1011.3 0.0
03/09:00am 30.2 34.0 24.1 70 4.2 NE 11 13 6 7 1010.8 1010.6 0.0
03/08:30am 30.4 34.6 24.1 69 4.4 NNE 9 15 5 8 1010.5 1010.3 0.0
03/08:00am 30.3 34.5 24.7 72 3.9 NNE 11 15 6 8 1010.1 1009.9 0.0
03/07:30am 29.9 34.3 24.5 73 3.8 NNE 9 15 5 8 1009.9 1009.7 0.0
03/07:00am 29.7 33.8 24.6 74 3.6 NNE 11 17 6 9 1009.5 1009.3 0.0
03/06:30am 29.5 33.2 24.6 75 3.4 NNE 13 19 7 10 1009.2 1009.0 0.0
03/06:00am 29.5 33.2 24.6 75 3.4 NNE 13 17 7 9 1008.6 1008.4 0.0
03/05:30am 29.6 34.2 24.7 75 3.4 NNE 9 15 5 8 1008.6 1008.4 0.0
03/05:00am 29.3 33.6 24.2 74 3.5 NNE 9 11 5 6 1008.6 1008.4 0.0
03/04:30am 29.5 33.7 24.8 76 3.3 NNE 11 17 6 9 1008.5 1008.3 0.0
03/04:00am 29.4 33.2 24.7 76 3.3 NNE 13 20 7 11 1008.2 1008.0 0.0
03/03:30am 29.5 33.1 25.0 77 3.2 NNE 15 20 8 11 1008.0 1007.8 0.0
03/03:00am 29.6 33.1 24.9 76 3.3 NNE 15 22 8 12 1008.3 1008.1 0.0
03/02:30am 29.5 32.9 24.6 75 3.4 N 15 20 8 11 1008.5 1008.3 0.0
03/02:00am 29.6 33.1 24.9 76 3.3 NNE 15 20 8 11 1008.6 1008.4 0.0
03/01:30am 29.6 33.0 24.7 75 3.4 N 15 19 8 10 1008.9 1008.7 0.0
03/01:00am 29.6 32.6 24.7 75 3.4 N 17 24 9 13 1009.1 1008.9 0.0
03/12:30am 29.7 32.3 24.6 74 3.6 N 19 22 10 12 1009.4 1009.2 0.0
03/12:00am 29.9 32.2 25.0 75 3.4 N 22 28 12 15 1009.1 1008.9 0.0
 
Date/Time
CST
Temp
°C
App
Temp
°C
Dew
Point
°C
Rel
Hum
%
Delta-T
°C
Wind Press
QNH
hPa
Press
MSL
hPa
Rain since
9am
mm
Dir  Spd
km/h
Gust
km/h
Spd
kts
Gust
kts
02/11:30pm 29.9 31.4 24.3 72 3.9 N 24 28 13 15 1009.2 1009.0 0.0
02/11:00pm 29.8 32.2 24.2 72 3.9 N 19 24 10 13 1009.5 1009.3 0.0
02/10:30pm 30.0 32.0 23.9 70 4.2 NNW 20 24 11 13 1009.7 1009.5 0.0
02/10:00pm 30.0 33.6 24.4 72 3.9 N 13 19 7 10 1009.8 1009.6 0.0
02/09:30pm 29.7 34.2 25.2 77 3.2 N 11 13 6 7 1009.4 1009.2 0.0
02/09:00pm 30.0 33.6 24.4 72 3.9 N 13 17 7 9 1009.1 1008.9 0.0
02/08:30pm 30.1 32.5 24.3 71 4.0 N 19 28 10 15 1008.7 1008.5 0.0
02/08:00pm 30.4 33.8 25.2 74 3.7 NNE 17 24 9 13 1008.3 1008.1 0.0
02/07:30pm 30.6 32.5 25.0 72 3.9 NNE 24 30 13 16 1007.6 1007.4 0.0
02/07:00pm 31.4 35.5 24.5 67 4.8 NNE 11 13 6 7 1007.2 1007.0 0.0
02/06:30pm 31.5 35.5 24.4 66 5.0 NE 11 17 6 9 1007.0 1006.8 0.0
02/06:00pm 31.7 36.1 23.8 63 5.5 NE 7 11 4 6 1006.7 1006.5 0.0
02/05:30pm 32.2 36.3 22.3 56 6.8 N 4 6 2 3 1006.4 1006.2 0.0
02/05:00pm 32.5 36.5 22.0 54 7.1 N 4 6 2 3 1006.2 1006.0 0.0
02/04:30pm 32.4 37.1 23.4 59 6.2 N 4 6 2 3 1006.7 1006.5 0.0
02/04:00pm 32.5 37.2 24.0 61 5.9 N 6 7 3 4 1007.0 1006.8 0.0
02/03:30pm 32.2 36.5 23.7 61 5.9 N 7 9 4 5 1007.4 1007.2 0.0
02/03:00pm 32.1 36.4 23.3 59 6.1 NNE 6 9 3 5 1007.6 1007.4 0.0
02/02:30pm 32.3 36.4 23.3 59 6.2 NE 7 13 4 7 1007.5 1007.3 0.0
02/02:00pm 31.9 35.7 24.0 63 5.5 NE 11 17 6 9 1007.8 1007.6 0.0
02/01:30pm 32.2 35.8 24.3 63 5.5 NE 13 19 7 10 1008.3 1008.1 0.0
02/01:00pm 31.8 35.3 23.6 62 5.7 ENE 11 20 6 11 1008.5 1008.3 0.0
02/12:30pm 31.6 35.4 24.7 67 4.9 NE 13 20 7 11 1009.0 1008.8 0.0
02/12:00pm 31.0 33.8 23.6 64 5.1 NE 15 20 8 11 1009.4 1009.2 0.0
02/11:30am 30.8 34.2 24.0 67 4.7 ENE 13 20 7 11 1010.1 1009.9 0.0
02/11:00am 31.0 34.2 24.4 68 4.6 ENE 15 22 8 12 1010.7 1010.5 0.0
02/10:30am 31.4 35.2 24.0 65 5.2 E 11 19 6 10 1010.9 1010.7 0.0
02/10:00am 30.8 34.6 24.0 67 4.7 ENE 11 19 6 10 1010.4 1010.2 0.0
02/09:30am 30.0 33.3 23.2 67 4.7 E 11 20 6 11 1010.2 1010.0 0.0
02/09:00am 29.4 33.0 23.1 69 4.3 E 9 19 5 10 1010.0 1009.8 0.2
02/08:30am 28.5 31.7 23.0 72 3.8 ESE 11 20 6 11 1009.9 1009.7 0.2
02/08:00am 27.4 29.6 22.6 75 3.3 ESE 15 22 8 12 1009.7 1009.5 0.2
02/07:30am 27.6 30.8 22.3 73 3.6 ESE 9 17 5 9 1010.0 1009.8 0.2
02/07:00am 26.8 29.5 22.2 76 3.1 ESE 11 17 6 9 1009.6 1009.4 0.2
02/06:30am 26.4 29.0 22.0 77 3.0 ESE 11 19 6 10 1009.5 1009.3 0.2
02/06:00am 26.4 28.8 21.6 75 3.2 SE 11 19 6 10 1009.4 1009.2 0.2
02/05:30am 26.5 28.9 21.5 74 3.3 SE 11 19 6 10 1009.0 1008.8 0.2
02/05:00am 26.4 28.8 21.6 75 3.2 SSE 11 19 6 10 1008.3 1008.1 0.2
02/04:30am 26.0 28.5 21.7 77 2.9 SE 11 15 6 8 1007.8 1007.6 0.2
02/04:00am 26.0 28.3 22.1 79 2.6 SSE 13 20 7 11 1007.9 1007.7 0.2
02/03:30am 26.0 29.4 22.7 82 2.2 SSE 9 15 5 8 1007.8 1007.6 0.2
02/03:00am 26.6 30.6 23.7 84 2.0 SSE 9 17 5 9 1007.8 1007.6 0.2
02/02:30am 27.0 32.5 24.6 87 1.7 N 4 6 2 3 1008.0 1007.8 0.2
02/02:00am 28.0 33.3 24.4 81 2.5 N 4 9 2 5 1007.9 1007.7 0.2
02/01:30am 30.0 34.4 24.4 72 3.9 N 9 11 5 6 1008.2 1008.0 0.2
02/01:00am 30.1 34.3 23.5 67 4.6 N 7 13 4 7 1008.6 1008.4 0.2
02/12:30am 30.2 33.7 23.6 67 4.6 N 11 13 6 7 1009.1 1008.9 0.2
02/12:00am 30.2 33.8 23.1 65 4.9 NNW 9 13 5 7 1009.3 1009.1 0.2
 
Date/Time
CST
Temp
°C
App
Temp
°C
Dew
Point
°C
Rel
Hum
%
Delta-T
°C
Wind Press
QNH
hPa
Press
MSL
hPa
Rain since
9am
mm
Dir  Spd
km/h
Gust
km/h
Spd
kts
Gust
kts
01/11:30pm 30.2 33.7 23.6 67 4.6 NNW 11 17 6 9 1008.8 1008.6 0.2
01/11:00pm 29.9 34.6 24.3 72 3.9 NNW 7 13 4 7 1009.2 1009.0 0.2
01/10:30pm 28.6 34.1 24.6 79 2.8 NNW 4 9 2 5 1009.0 1008.8 0.2
01/10:00pm 28.3 33.3 24.5 80 2.6 NW 6 9 3 5 1008.2 1008.0 0.2
01/09:30pm 27.6 33.9 24.8 85 2.0 CALM 0 2 0 1 1007.5 1007.3 0.2
01/09:00pm 28.0 33.5 24.6 82 2.4 NW 4 6 2 3 1007.7 1007.5 0.2
01/08:30pm 29.1 34.4 24.4 76 3.3 NW 4 6 2 3 1007.6 1007.4 0.2
01/08:00pm 28.6 34.8 24.6 79 2.8 CALM 0 0 0 0 1007.4 1007.2 0.2

Latest Capital City Observations: Canberra | Sydney | Melbourne | Brisbane | Adelaide | Perth | Hobart | Darwin

Other Formats:

Comma delimited format used in spreadsheet applications
http://www.bom.gov.au/fwo/IDD60901/IDD60901.99510.axf

JavaScript Object Notation format (JSON) in row-major order
http://www.bom.gov.au/fwo/IDD60901/IDD60901.99510.json